Time;durP1;ratioP1;P1;durP2;ratioP2;P2;SDS_P1;SDS_P2;PMS_P1;PMS_P2;Temp;Humidity;BMP_temperature;BMP_pressure;BME280_temperature;BME280_humidity;BME280_pressure;Samples;Min_cycle;Max_cycle;Signal;HPM_P1;HPM_P2
2022/01/20 00:01:44;;;;;;;34.60;13.60;;;;;;;2.23;59.92;100970.16;5354396;32;35607;-70
2022/01/20 00:28:17;;;;;;;27.33;13.10;;;;;;;2.20;60.71;100945.94;5366446;32;35570;-69
2022/01/20 00:35:12;;;;;;;32.53;12.80;;;;;;;2.01;60.75;100937.22;5354660;32;44377;-69
2022/01/20 00:38:14;;;;;;;29.63;13.00;;;;;;;1.95;62.01;100938.06;5375681;32;34555;-63
2022/01/20 00:41:16;;;;;;;30.73;13.47;;;;;;;1.97;61.70;100935.47;5356229;32;44955;-69
2022/01/20 00:44:18;;;;;;;35.07;14.83;;;;;;;1.07;63.89;100953.88;5358078;32;34652;-69
2022/01/20 00:47:21;;;;;;;30.10;14.63;;;;;;;0.89;65.49;100966.63;5354950;32;34432;-70
2022/01/20 00:50:24;;;;;;;37.17;14.10;;;;;;;2.05;61.97;100954.50;5370236;32;35266;-69
2022/01/20 00:53:26;;;;;;;33.85;14.68;;;;;;;1.81;61.39;100956.13;5361000;32;34788;-63
2022/01/20 00:56:28;;;;;;;33.87;14.33;;;;;;;1.71;63.31;100953.47;5332091;32;35720;-63
2022/01/20 00:59:32;;;;;;;40.60;14.20;;;;;;;1.67;63.23;100954.28;5354275;32;35378;-63
2022/01/20 01:02:35;;;;;;;28.15;13.95;;;;;;;1.38;64.49;100964.47;5360300;32;35155;-70
2022/01/20 01:05:48;;;;;;;30.80;13.27;;;;;;;1.68;63.24;100966.41;5368318;32;34686;-71
2022/01/20 01:08:51;;;;;;;30.40;14.47;;;;;;;1.55;63.43;100948.22;5368024;32;44776;-70
2022/01/20 01:11:58;;;;;;;29.20;12.07;;;;;;;1.35;64.75;100967.88;5361163;32;34544;-70
2022/01/20 01:15:02;;;;;;;33.73;12.87;;;;;;;2.42;60.10;100952.94;5367001;32;34680;-69
2022/01/20 01:21:42;;;;;;;27.43;13.27;;;;;;;1.93;61.97;100973.44;5362365;32;34696;-70
2022/01/20 01:24:45;;;;;;;33.03;13.07;;;;;;;1.06;66.11;100981.47;5362504;32;35605;-64
2022/01/20 01:27:48;;;;;;;;;;;;;;;1.19;66.94;100963.47;5363371;32;44802;-71
2022/01/20 01:31:38;;;;;;;31.87;13.83;;;;;;;0.60;67.65;100963.78;5368397;32;35859;-62
2022/01/20 01:34:14;;;;;;;27.17;13.47;;;;;;;0.88;67.20;100945.06;5359511;32;34888;-64
2022/01/20 01:38:23;;;;;;;;;;;;;;;1.58;63.59;100936.97;5362443;32;42330;-64
2022/01/20 01:40:56;;;;;;;28.47;12.53;;;;;;;1.90;63.62;100926.78;5355274;32;35557;-64
2022/01/20 01:44:05;;;;;;;30.00;13.65;;;;;;;2.08;62.21;100920.84;5356088;32;34656;-63
2022/01/20 01:47:07;;;;;;;35.87;13.47;;;;;;;2.39;61.46;100914.03;5371362;32;35070;-63
2022/01/20 01:50:09;;;;;;;27.93;13.80;;;;;;;2.11;62.00;100906.12;5354720;32;34854;-71
2022/01/20 01:53:14;;;;;;;30.47;13.33;;;;;;;1.79;63.83;100913.78;5365093;32;35226;-64
2022/01/20 01:56:17;;;;;;;28.13;13.33;;;;;;;0.99;65.87;100909.78;5330816;32;44701;-71
2022/01/20 01:59:19;;;;;;;30.93;13.00;;;;;;;1.21;65.56;100886.66;5352483;32;35127;-64
2022/01/20 02:02:22;;;;;;;34.33;13.70;;;;;;;2.36;62.08;100894.09;5350111;32;34631;-62
2022/01/20 02:05:25;;;;;;;27.58;12.68;;;;;;;2.43;60.91;100874.22;5359994;32;35849;-69
2022/01/20 02:18:53;;;;;;;32.13;13.77;;;;;;;3.22;57.56;100837.91;5360120;32;44482;-63
2022/01/20 02:22:02;;;;;;;28.83;15.20;;;;;;;2.00;60.77;100826.59;5357402;32;35150;-63
2022/01/20 02:25:04;;;;;;;30.20;13.57;;;;;;;2.03;62.03;100808.44;5368130;32;34570;-65
2022/01/20 02:28:08;;;;;;;27.33;13.20;;;;;;;2.12;60.75;100808.47;5370959;32;35715;-71
2022/01/20 02:31:11;;;;;;;30.83;13.37;;;;;;;1.79;61.16;100810.09;5359688;32;35065;-63
2022/01/20 02:34:14;;;;;;;31.23;14.57;;;;;;;2.38;59.78;100809.38;5365956;32;34617;-62
2022/01/20 02:37:16;;;;;;;33.58;13.55;;;;;;;1.26;64.37;100802.09;5366975;32;46673;-68
2022/01/20 02:46:53;;;;;;;30.97;14.07;;;;;;;1.41;63.08;100799.56;5361649;32;46328;-69
2022/01/20 02:49:56;;;;;;;29.23;12.70;;;;;;;0.60;66.70;100800.81;5356785;32;34634;-69
2022/01/20 02:52:58;;;;;;;36.90;14.20;;;;;;;0.72;64.96;100801.75;5372925;32;35064;-69
2022/01/20 02:56:00;;;;;;;34.87;14.67;;;;;;;1.51;63.88;100795.31;5339370;32;34742;-69
2022/01/20 02:59:02;;;;;;;30.77;14.40;;;;;;;1.11;64.73;100779.59;5350761;32;35177;-69
2022/01/20 03:02:05;;;;;;;31.53;14.27;;;;;;;0.25;68.09;100793.59;5355875;32;35705;-69
2022/01/20 03:05:10;;;;;;;37.97;15.13;;;;;;;0.21;70.16;100782.37;5366333;32;35484;-63
2022/01/20 03:08:12;;;;;;;34.27;14.37;;;;;;;0.96;67.07;100770.00;5366004;32;35095;-70
2022/01/20 03:11:14;;;;;;;36.37;15.67;;;;;;;1.18;65.87;100759.78;5358614;32;35728;-63
2022/01/20 03:14:17;;;;;;;32.07;14.20;;;;;;;0.46;67.73;100757.59;5367238;32;46585;-63
2022/01/20 03:17:19;;;;;;;30.67;13.77;;;;;;;1.16;66.27;100751.12;5362920;32;35103;-63
2022/01/20 03:20:21;;;;;;;25.33;13.07;;;;;;;0.69;67.62;100754.28;5356907;32;35358;-63
2022/01/20 03:23:23;;;;;;;26.23;14.37;;;;;;;1.58;63.67;100746.13;5366254;32;35791;-62
2022/01/20 03:26:26;;;;;;;32.40;14.50;;;;;;;0.72;66.21;100750.03;5358282;32;35159;-69
2022/01/20 03:29:28;;;;;;;30.07;12.17;;;;;;;0.25;67.52;100741.87;5359339;32;36897;-69
2022/01/20 03:32:30;;;;;;;31.20;14.77;;;;;;;0.97;66.23;100740.69;5359425;32;34713;-69
2022/01/20 03:35:32;;;;;;;38.93;15.27;;;;;;;0.06;69.00;100745.16;5368873;32;35305;-63
2022/01/20 03:38:34;;;;;;;32.27;13.67;;;;;;;0.40;68.81;100739.44;5375276;32;35776;-63
2022/01/20 03:41:36;;;;;;;31.73;13.43;;;;;;;0.82;66.50;100728.50;5367062;32;35350;-69
2022/01/20 03:44:38;;;;;;;30.27;13.10;;;;;;;0.43;67.87;100734.28;5359617;32;35890;-63
2022/01/20 03:47:42;;;;;;;20.97;9.83;;;;;;;1.11;65.42;100722.63;5359064;32;35165;-70
2022/01/20 03:50:59;;;;;;;32.70;15.47;;;;;;;0.89;65.93;100715.59;5361204;32;35489;-63
2022/01/20 03:54:04;;;;;;;31.20;13.47;;;;;;;0.35;68.23;100710.09;5359506;32;35382;-68
2022/01/20 03:57:06;;;;;;;36.67;13.63;;;;;;;0.93;66.38;100709.59;5342657;32;36199;-72
2022/01/20 04:00:09;;;;;;;31.67;13.53;;;;;;;1.04;65.73;100708.78;5356257;32;35556;-69
2022/01/20 04:03:14;;;;;;;29.83;13.20;;;;;;;0.37;67.57;100715.25;5351387;32;35040;-62
2022/01/20 04:06:16;;;;;;;31.33;13.13;;;;;;;0.01;70.99;100710.69;5369959;32;42337;-63
2022/01/20 04:09:18;;;;;;;32.53;13.23;;;;;;;0.64;68.16;100715.44;5354207;32;34869;-63
2022/01/20 04:12:20;;;;;;;31.87;14.60;;;;;;;1.24;65.81;100700.25;5360348;32;34451;-63
2022/01/20 04:15:26;;;;;;;29.60;13.50;;;;;;;0.99;66.05;100707.03;5359365;32;35729;-68
2022/01/20 04:18:29;;;;;;;28.77;12.87;;;;;;;1.32;65.22;100701.13;5360627;32;36815;-68
2022/01/20 04:21:31;;;;;;;26.42;13.23;;;;;;;1.37;64.28;100702.03;5373362;32;35406;-62
2022/01/20 04:24:34;;;;;;;27.80;13.03;;;;;;;1.03;65.97;100704.47;5368101;32;34042;-71
2022/01/20 04:27:36;;;;;;;32.17;13.83;;;;;;;0.98;65.55;100700.12;5373854;32;35195;-69
2022/01/20 04:30:39;;;;;;;31.70;14.13;;;;;;;1.20;64.92;100689.00;5367927;32;35455;-69
2022/01/20 04:33:41;;;;;;;27.57;13.40;;;;;;;0.97;65.92;100691.50;5360337;32;35250;-70
2022/01/20 04:36:45;;;;;;;30.27;13.73;;;;;;;1.72;63.19;100688.28;5362427;32;35197;-70
2022/01/20 04:39:50;;;;;;;31.80;13.47;;;;;;;0.95;65.30;100705.28;5360535;32;46539;-63
2022/01/20 04:42:53;;;;;;;33.20;13.80;;;;;;;0.49;67.08;100712.78;5371389;32;35386;-63
2022/01/20 04:46:45;;;;;;;29.58;13.00;;;;;;;1.66;63.16;100712.44;5357376;32;36032;-63
2022/01/20 04:59:40;;;;;;;30.03;14.10;;;;;;;0.46;66.36;100716.22;5353617;32;36112;-71
2022/01/20 05:02:42;;;;;;;31.00;14.93;;;;;;;1.01;65.56;100697.56;5351321;32;35846;-68
2022/01/20 05:05:44;;;;;;;33.90;13.00;;;;;;;1.43;63.90;100706.38;5353773;32;35068;-62
2022/01/20 05:08:46;;;;;;;29.07;13.43;;;;;;;0.75;66.19;100705.19;5360742;32;44369;-63
2022/01/20 05:12:11;;;;;;;28.47;13.23;;;;;;;0.64;65.89;100699.91;5357759;32;34955;-63
2022/01/20 05:15:13;;;;;;;30.23;13.23;;;;;;;0.71;67.62;100712.06;5357459;32;34555;-63
2022/01/20 05:18:15;;;;;;;37.73;13.77;;;;;;;1.25;65.10;100699.38;5360464;32;35405;-62
2022/01/20 05:21:17;;;;;;;28.77;14.13;;;;;;;1.87;62.07;100702.16;5368228;32;44985;-69
2022/01/20 05:24:22;;;;;;;35.80;13.77;;;;;;;1.70;62.65;100696.06;5366857;32;35084;-69
2022/01/20 05:27:24;;;;;;;29.43;13.70;;;;;;;1.36;64.15;100697.72;5358397;32;35888;-63
2022/01/20 05:30:26;;;;;;;32.47;13.47;;;;;;;1.69;61.72;100696.94;5358969;32;35599;-70
2022/01/20 05:33:28;;;;;;;30.87;13.50;;;;;;;1.57;62.24;100702.94;5361060;32;34993;-63
2022/01/20 05:36:30;;;;;;;33.73;14.37;;;;;;;1.71;62.11;100700.38;5361906;32;35238;-63
2022/01/20 05:39:32;;;;;;;31.93;14.60;;;;;;;1.65;62.48;100708.13;5365929;32;35155;-71
2022/01/20 05:42:36;;;;;;;33.00;15.00;;;;;;;1.14;64.84;100693.28;5360361;32;35433;-65
2022/01/20 05:45:38;;;;;;;33.28;15.00;;;;;;;1.49;63.99;100686.53;5358773;32;35547;-62
2022/01/20 05:48:46;;;;;;;28.40;14.40;;;;;;;1.86;62.97;100687.44;5369306;32;35940;-63
2022/01/20 05:51:52;;;;;;;34.37;15.43;;;;;;;2.00;62.10;100677.09;5363492;32;46769;-63
2022/01/20 05:54:55;;;;;;;32.10;13.73;;;;;;;1.06;64.47;100696.72;5340883;32;37077;-69
2022/01/20 05:57:57;;;;;;;30.87;13.80;;;;;;;1.39;63.60;100687.34;5351675;32;34648;-63
2022/01/20 06:00:59;;;;;;;31.10;14.40;;;;;;;1.44;64.03;100684.78;5360113;32;35467;-63
2022/01/20 06:04:01;;;;;;;32.43;13.87;;;;;;;1.59;63.63;100680.47;5350220;32;34568;-63
2022/01/20 06:07:04;;;;;;;31.40;12.70;;;;;;;1.72;62.03;100677.91;5359575;32;35277;-71
2022/01/20 06:10:06;;;;;;;21.70;8.47;;;;;;;0.95;64.80;100679.41;5349633;32;34534;-63
2022/01/20 06:13:08;;;;;;;28.97;13.33;;;;;;;0.70;66.03;100686.16;5359869;32;34500;-69
2022/01/20 06:16:10;;;;;;;32.27;13.33;;;;;;;0.22;67.75;100680.69;5354142;32;35565;-63
2022/01/20 06:19:13;;;;;;;33.90;14.97;;;;;;;0.22;68.40;100678.09;5370753;32;34879;-69
2022/01/20 06:22:15;;;;;;;30.47;14.73;;;;;;;0.49;68.20;100681.72;5358235;32;35153;-63
2022/01/20 06:25:17;;;;;;;35.43;15.17;;;;;;;0.59;66.47;100675.78;5348307;32;44368;-63
2022/01/20 06:28:20;;;;;;;34.47;15.37;;;;;;;1.03;65.38;100688.06;5351894;32;34771;-70
2022/01/20 06:31:22;;;;;;;23.53;12.17;;;;;;;1.46;63.61;100683.03;5344182;32;34635;-69
2022/01/20 06:34:24;;;;;;;35.83;16.00;;;;;;;2.04;61.45;100691.78;5357032;32;36000;-63
2022/01/20 06:37:27;;;;;;;29.90;14.47;;;;;;;0.98;65.47;100694.97;5367950;32;34368;-63
2022/01/20 06:40:30;;;;;;;33.47;14.27;;;;;;;1.77;62.84;100684.84;5365825;32;34372;-62
2022/01/20 06:43:33;;;;;;;32.67;11.55;;;;;;;1.83;62.76;100687.44;5350891;32;34586;-63
2022/01/20 06:46:36;;;;;;;27.83;11.57;;;;;;;1.67;63.31;100669.25;5350918;32;36071;-69
2022/01/20 06:49:45;;;;;;;28.53;12.47;;;;;;;1.63;63.69;100681.37;5355687;32;35939;-62
2022/01/20 06:52:48;;;;;;;29.43;14.47;;;;;;;1.82;63.58;100687.44;5357289;32;44387;-68
2022/01/20 06:55:54;;;;;;;29.30;10.63;;;;;;;1.87;63.60;100683.12;5341991;32;32841;-70
2022/01/20 06:58:56;;;;;;;27.47;12.97;;;;;;;1.99;62.78;100685.72;5334522;32;36297;-66
2022/01/20 07:01:58;;;;;;;24.60;11.87;;;;;;;2.17;62.67;100664.97;5349892;32;33238;-70
2022/01/20 07:05:01;;;;;;;32.30;14.20;;;;;;;2.42;61.87;100655.44;5357864;32;34624;-62
2022/01/20 07:08:04;;;;;;;28.27;14.17;;;;;;;2.39;62.19;100655.47;5357182;32;34554;-61
2022/01/20 07:11:06;;;;;;;28.73;14.70;;;;;;;2.27;62.14;100660.66;5343244;32;37276;-69
2022/01/20 07:14:08;;;;;;;32.33;14.77;;;;;;;2.58;60.07;100656.28;5350942;32;35618;-69
2022/01/20 07:17:11;;;;;;;33.27;15.57;;;;;;;3.04;59.90;100660.47;5350859;32;34494;-68
2022/01/20 07:20:15;;;;;;;36.85;16.55;;;;;;;3.38;57.70;100662.03;5347247;32;34565;-60
2022/01/20 07:23:17;;;;;;;33.97;17.13;;;;;;;3.25;57.13;100660.37;5354216;32;44609;-60
2022/01/20 07:26:19;;;;;;;38.17;17.67;;;;;;;3.07;57.04;100648.31;5358458;32;34673;-67
2022/01/20 07:29:22;;;;;;;36.20;15.97;;;;;;;2.66;58.13;100644.16;5358463;32;35376;-68
2022/01/20 07:32:24;;;;;;;40.40;18.20;;;;;;;2.73;58.84;100642.41;5359282;32;37696;-73
2022/01/20 07:35:29;;;;;;;42.20;17.50;;;;;;;2.63;59.48;100638.97;5357505;32;36700;-65
2022/01/20 07:38:31;;;;;;;35.40;16.70;;;;;;;2.49;59.18;100643.31;5361562;32;36400;-61
2022/01/20 07:41:33;;;;;;;32.70;15.60;;;;;;;3.08;57.44;100631.00;5358143;32;35086;-61
2022/01/20 07:44:36;;;;;;;30.37;15.47;;;;;;;2.73;58.47;100634.63;5351286;32;35879;-63
2022/01/20 07:47:39;;;;;;;33.83;17.40;;;;;;;2.61;59.15;100640.69;5353893;32;34593;-60
2022/01/20 07:50:41;;;;;;;36.25;16.75;;;;;;;3.06;58.37;100640.56;5358381;32;35044;-65
2022/01/20 07:53:43;;;;;;;36.03;17.53;;;;;;;2.99;57.95;100629.34;5358413;32;35474;-59
2022/01/20 07:56:45;;;;;;;34.80;16.67;;;;;;;3.12;58.35;100631.00;5336205;32;34598;-66
2022/01/20 07:59:48;;;;;;;41.90;18.37;;;;;;;3.46;57.22;100621.28;5351394;32;44663;-67
2022/01/20 08:02:52;;;;;;;37.83;17.33;;;;;;;3.55;57.35;100609.97;5343835;32;35412;-59
2022/01/20 08:05:58;;;;;;;35.30;16.47;;;;;;;3.23;58.78;100623.16;5346875;32;33480;-64
2022/01/20 08:09:00;;;;;;;30.40;15.73;;;;;;;2.80;60.52;100625.09;5359263;32;35851;-63
2022/01/20 08:12:04;;;;;;;38.57;15.37;;;;;;;3.85;58.75;100610.59;5353758;32;35905;-65
2022/01/20 08:15:09;;;;;;;;;;;;;;;4.13;58.08;100612.09;5355028;32;34746;-62
2022/01/20 08:18:11;;;;;;;39.10;18.67;;;;;;;4.70;56.80;100607.19;5363347;32;34951;-63
2022/01/20 08:21:14;;;;;;;37.37;16.43;;;;;;;3.91;58.26;100621.81;5357182;32;35397;-65
2022/01/20 08:24:16;;;;;;;37.77;17.73;;;;;;;4.48;57.03;100624.75;5360981;32;35222;-65
2022/01/20 08:27:19;;;;;;;37.17;17.57;;;;;;;4.37;55.04;100623.13;5366694;32;35318;-63
2022/01/20 08:30:23;;;;;;;42.72;17.67;;;;;;;2.88;60.32;100634.56;5356510;32;34461;-69
2022/01/20 08:33:25;;;;;;;;;;;;;;;4.61;54.58;100623.75;5368730;32;36109;-64
2022/01/20 08:36:27;;;;;;;40.73;17.60;;;;;;;4.77;54.28;100615.78;5359629;32;34669;-64
2022/01/20 08:42:36;;;;;;;34.17;16.90;;;;;;;5.28;53.14;100629.00;5363580;32;34450;-64
2022/01/20 08:45:39;;;;;;;34.93;17.03;;;;;;;5.75;51.92;100628.34;5365612;32;35763;-62
2022/01/20 08:48:42;;;;;;;36.15;16.60;;;;;;;5.76;51.52;100622.22;5357717;32;34658;-66
2022/01/20 08:51:44;;;;;;;29.33;15.80;;;;;;;5.65;52.03;100617.16;5350586;32;34790;-66
2022/01/20 08:54:50;;;;;;;32.80;16.63;;;;;;;5.67;52.10;100614.56;5348440;32;42838;-65
2022/01/20 08:57:58;;;;;;;32.03;16.20;;;;;;;5.73;52.13;100606.59;5342686;32;34676;-62
2022/01/20 09:01:04;;;;;;;35.90;16.83;;;;;;;5.90;51.38;100615.03;5375364;32;35168;-68
2022/01/20 09:04:07;;;;;;;33.93;16.23;;;;;;;6.03;51.37;100622.69;5349849;32;37809;-70
2022/01/20 09:07:10;;;;;;;33.30;16.73;;;;;;;4.94;54.33;100625.97;5361953;32;34393;-63
2022/01/20 09:10:19;;;;;;;30.80;15.43;;;;;;;5.79;52.81;100627.37;5350755;32;35335;-62
2022/01/20 09:16:44;;;;;;;29.47;14.27;;;;;;;6.20;51.36;100629.34;5350151;32;35490;-66
2022/01/20 09:19:47;;;;;;;33.33;14.83;;;;;;;6.83;49.40;100633.44;5359541;32;43453;-67
2022/01/20 09:22:51;;;;;;;27.20;13.98;;;;;;;6.73;49.94;100637.09;5359782;32;35522;-68
2022/01/20 09:25:53;;;;;;;26.73;13.98;;;;;;;6.87;49.49;100636.81;5358717;32;34922;-72
2022/01/20 09:28:55;;;;;;;27.50;11.70;;;;;;;6.46;50.79;100631.50;5369650;32;35790;-60
2022/01/20 09:31:59;;;;;;;22.60;9.67;;;;;;;5.27;53.79;100637.72;5356207;32;35879;-63
2022/01/20 09:35:04;;;;;;;19.00;8.63;;;;;;;4.11;57.72;100636.38;5352760;32;38715;-63
2022/01/20 09:38:07;;;;;;;25.08;8.95;;;;;;;4.56;56.40;100635.94;5363851;32;34608;-61
2022/01/20 09:41:15;;;;;;;20.63;8.27;;;;;;;5.18;55.11;100625.69;5350960;32;34656;-72
2022/01/20 09:44:18;;;;;;;20.10;9.00;;;;;;;4.88;55.93;100619.97;5360489;32;44319;-73
2022/01/20 09:47:22;;;;;;;16.52;9.00;;;;;;;5.35;55.36;100622.84;5364673;32;34708;-69
2022/01/20 09:50:26;;;;;;;21.70;8.98;;;;;;;4.69;56.82;100618.44;5365453;32;32741;-68
2022/01/20 09:53:29;;;;;;;19.73;8.23;;;;;;;5.56;54.74;100622.53;5352245;32;34490;-65
2022/01/20 09:56:32;;;;;;;20.07;9.20;;;;;;;5.68;54.74;100624.97;5332999;32;35185;-65
2022/01/20 09:59:36;;;;;;;18.47;8.60;;;;;;;4.98;58.03;100625.06;5358993;32;34492;-66
2022/01/20 10:02:55;;;;;;;26.67;8.80;;;;;;;4.95;58.91;100633.75;5355821;32;36138;-71
2022/01/20 10:06:00;;;;;;;16.63;8.47;;;;;;;5.29;58.53;100612.50;5359754;32;34695;-67
2022/01/20 10:09:03;;;;;;;20.77;7.87;;;;;;;5.18;59.83;100623.06;5360316;32;35704;-65
2022/01/20 10:12:27;;;;;;;120.80;54.80;;;;;;;5.07;61.33;100617.13;5351697;32;43982;-66
2022/01/20 10:15:29;;;;;;;17.37;7.93;;;;;;;5.76;60.09;100609.19;5359750;32;34633;-67
2022/01/20 10:18:34;;;;;;;17.73;7.97;;;;;;;6.20;59.14;100605.00;5359866;32;35882;-61
2022/01/20 10:21:38;;;;;;;22.43;10.10;;;;;;;4.81;63.71;100605.28;5366914;32;34575;-62
2022/01/20 10:24:42;;;;;;;19.57;8.97;;;;;;;5.13;64.69;100604.88;5350802;32;35919;-62
2022/01/20 10:27:57;;;;;;;17.13;8.17;;;;;;;4.34;68.13;100591.06;5359874;32;34593;-64
2022/01/20 10:31:00;;;;;;;16.03;8.60;;;;;;;4.34;68.47;100582.41;5358665;32;34872;-60
2022/01/20 10:34:05;;;;;;;15.53;7.17;;;;;;;3.93;71.39;100588.88;5353312;32;32933;-65
2022/01/20 10:37:16;;;;;;;16.57;7.53;;;;;;;4.50;69.20;100567.47;5359352;32;35900;-71
2022/01/20 10:40:22;;;;;;;16.07;6.53;;;;;;;4.72;70.05;100575.91;5366641;32;44454;-71
2022/01/20 10:43:33;;;;;;;15.00;7.00;;;;;;;4.64;70.53;100557.78;5341141;32;34685;-77
2022/01/20 10:46:58;;;;;;;13.47;5.70;;;;;;;4.53;71.47;100563.09;5340625;32;44392;-71
2022/01/20 10:50:11;;;;;;;;;;;;;;;4.82;70.41;100561.88;5345063;32;35010;-76
2022/01/20 10:53:20;;;;;;;12.50;6.40;;;;;;;4.15;72.97;100553.13;5365740;32;34433;-69
2022/01/20 10:56:23;;;;;;;11.03;5.37;;;;;;;4.80;71.75;100551.50;5328206;32;44566;-68
2022/01/20 10:59:25;;;;;;;12.57;5.67;;;;;;;4.57;71.09;100550.91;5357474;32;35386;-67
2022/01/20 11:02:29;;;;;;;10.57;5.13;;;;;;;4.45;72.45;100551.06;5354180;32;36136;-69
2022/01/20 11:05:37;;;;;;;12.77;6.23;;;;;;;4.31;73.21;100541.66;5361797;32;37807;-78
2022/01/20 11:08:42;;;;;;;14.63;5.50;;;;;;;4.88;71.51;100526.19;5348345;32;36271;-81
2022/01/20 11:12:13;;;;;;;10.13;4.87;;;;;;;4.30;72.86;100526.06;5359121;32;35561;-72
2022/01/20 11:15:18;;;;;;;14.00;5.23;;;;;;;5.21;68.57;100500.53;5327677;33;34011;-74
2022/01/20 11:18:26;;;;;;;11.20;5.20;;;;;;;5.72;67.82;100511.00;5324227;32;37118;-79
2022/01/20 11:21:31;;;;;;;10.70;5.30;;;;;;;4.94;70.17;100495.75;5319556;32;33499;-80
2022/01/20 11:33:36;;;;;;;9.83;4.20;;;;;;;5.45;67.92;100517.53;5307275;32;35581;-69
2022/01/20 11:37:23;;;;;;;11.45;4.65;;;;;;;4.98;67.62;100497.44;5333680;32;33732;-75
2022/01/20 11:40:27;;;;;;;11.70;5.47;;;;;;;5.68;65.60;100483.28;5346168;32;42593;-72
2022/01/20 11:43:49;;;;;;;9.83;4.77;;;;;;;5.50;66.38;100478.38;5357531;32;36073;-69
2022/01/20 11:46:55;;;;;;;9.63;4.23;;;;;;;6.90;61.66;100457.34;5352437;32;42607;-71
2022/01/20 11:49:59;;;;;;;10.37;4.37;;;;;;;6.49;61.87;100451.25;5358879;32;35127;-68
2022/01/20 11:53:21;;;;;;;9.23;4.47;;;;;;;5.53;65.53;100447.03;5358404;32;34992;-67
2022/01/20 11:56:29;;;;;;;13.53;5.00;;;;;;;5.39;65.06;100449.88;5332601;32;42903;-66
2022/01/20 11:59:44;;;;;;;9.50;4.07;;;;;;;5.89;63.90;100442.91;5341081;32;33251;-66
2022/01/20 12:02:54;;;;;;;9.00;4.20;;;;;;;6.51;61.54;100433.84;5349690;32;44199;-67
2022/01/20 12:10:02;;;;;;;8.73;4.35;;;;;;;6.07;62.49;100429.53;5376084;27;35611;-76
2022/01/20 12:13:11;;;;;;;12.15;4.37;;;;;;;5.78;62.84;100432.66;5363028;32;33705;-79
2022/01/20 12:16:22;;;;;;;10.17;4.60;;;;;;;5.95;62.52;100420.19;5361951;32;36286;-78
2022/01/20 12:19:24;;;;;;;11.17;4.67;;;;;;;5.38;64.18;100420.34;5354120;32;45266;-77
2022/01/20 12:22:27;;;;;;;11.13;4.30;;;;;;;6.91;59.41;100404.19;5363284;32;34590;-68
2022/01/20 12:25:30;;;;;;;11.63;4.32;;;;;;;6.88;58.38;100409.47;5359659;32;35969;-67
2022/01/20 12:28:32;;;;;;;10.97;4.63;;;;;;;6.14;60.71;100415.47;5364851;32;36156;-63
2022/01/20 12:31:46;;;;;;;12.23;4.83;;;;;;;6.92;59.31;100411.13;5360157;32;35613;-75
2022/01/20 12:34:58;;;;;;;12.40;4.67;;;;;;;6.94;57.39;100404.09;5361563;32;44250;-67
2022/01/20 12:38:00;;;;;;;9.90;4.70;;;;;;;6.85;58.71;100395.63;5358567;32;33687;-64
2022/01/20 12:41:11;;;;;;;9.80;4.87;;;;;;;6.78;58.65;100390.56;5356232;32;34540;-70
2022/01/20 12:44:15;;;;;;;15.00;7.17;;;;;;;7.24;57.00;100388.56;5362853;32;34480;-73
2022/01/20 12:47:18;;;;;;;10.03;4.43;;;;;;;7.77;53.98;100376.69;5371239;32;42322;-69
2022/01/20 12:50:20;;;;;;;11.27;5.03;;;;;;;8.53;52.74;100370.16;5355884;32;34506;-70
2022/01/20 12:53:40;;;;;;;8.97;4.20;;;;;;;7.66;53.86;100364.78;5363075;32;35559;-68
2022/01/20 12:56:44;;;;;;;10.67;4.60;;;;;;;7.84;53.64;100361.66;5329132;32;34808;-69
2022/01/20 12:59:47;;;;;;;10.00;4.33;;;;;;;7.98;53.55;100364.75;5354570;32;44511;-68
2022/01/20 13:02:50;;;;;;;11.83;4.53;;;;;;;6.32;56.63;100362.03;5351768;32;34812;-65
2022/01/20 13:05:57;;;;;;;10.60;5.33;;;;;;;5.79;59.28;100353.53;5360871;32;35328;-61
2022/01/20 13:09:08;;;;;;;12.23;5.40;;;;;;;6.64;57.03;100339.53;5364517;32;33818;-62
2022/01/20 13:12:12;;;;;;;11.27;4.97;;;;;;;7.68;53.65;100337.72;5363585;32;34472;-70
2022/01/20 13:15:17;;;;;;;10.10;4.40;;;;;;;6.65;56.27;100349.94;5364918;32;35758;-67
2022/01/20 13:18:19;;;;;;;7.87;3.97;;;;;;;7.14;55.44;100358.31;5356272;32;44403;-66
2022/01/20 13:21:53;;;;;;;9.80;4.03;;;;;;;7.24;54.45;100357.22;5362127;32;35745;-65
2022/01/20 13:25:13;;;;;;;8.83;4.30;;;;;;;7.00;55.00;100341.25;5356802;32;44276;-63
2022/01/20 13:28:17;;;;;;;13.77;4.63;;;;;;;7.25;53.96;100324.94;5358399;32;36104;-62
2022/01/20 13:31:19;;;;;;;9.77;4.20;;;;;;;7.77;52.82;100305.19;5344058;32;44406;-68
2022/01/20 13:34:22;;;;;;;7.53;3.53;;;;;;;8.91;48.83;100309.50;5347739;32;34557;-74
2022/01/20 13:37:30;;;;;;;10.37;4.30;;;;;;;7.74;50.27;100302.69;5357563;32;32774;-74
2022/01/20 13:40:47;;;;;;;9.27;3.43;;;;;;;7.69;51.17;100302.78;5326907;32;35027;-65
2022/01/20 13:47:15;;;;;;;7.53;3.60;;;;;;;7.73;50.67;100296.59;5347270;32;34296;-59
2022/01/20 13:50:32;;;;;;;11.70;4.17;;;;;;;7.10;51.32;100296.59;5345801;32;46474;-62
2022/01/20 13:53:36;;;;;;;9.57;3.90;;;;;;;6.82;51.96;100286.84;5325420;32;34543;-67
2022/01/20 13:56:49;;;;;;;10.23;4.03;;;;;;;7.10;51.99;100281.78;5288893;32;34393;-70
2022/01/20 13:59:55;;;;;;;9.98;3.17;;;;;;;6.23;53.57;100303.03;5334020;32;44411;-68
2022/01/20 14:02:58;;;;;;;9.40;3.33;;;;;;;6.01;53.96;100293.97;5331329;32;34606;-68
2022/01/20 14:06:01;;;;;;;8.07;3.08;;;;;;;6.89;52.19;100295.38;5347297;32;34460;-73
2022/01/20 14:09:03;;;;;;;6.90;3.40;;;;;;;6.29;52.70;100299.44;5334400;32;35962;-69
2022/01/20 14:12:06;;;;;;;6.37;2.93;;;;;;;6.41;52.83;100293.94;5353274;32;35612;-62
2022/01/20 14:15:11;;;;;;;9.07;3.37;;;;;;;5.94;53.53;100297.63;5367713;32;34543;-62
2022/01/20 14:18:19;;;;;;;9.23;3.83;;;;;;;6.37;52.32;100281.84;5350190;32;36130;-62
2022/01/20 14:21:21;;;;;;;6.20;3.00;;;;;;;6.25;53.06;100287.38;5353509;32;44068;-66
2022/01/20 14:24:28;;;;;;;9.90;3.67;;;;;;;6.28;52.13;100279.44;5356550;32;35839;-66
2022/01/20 14:27:32;;;;;;;9.10;3.90;;;;;;;5.57;54.91;100280.09;5356729;32;36421;-67
2022/01/20 14:30:34;;;;;;;10.10;3.58;;;;;;;5.94;53.53;100272.38;5359513;32;34865;-64
2022/01/20 14:33:36;;;;;;;10.30;3.30;;;;;;;5.32;55.50;100276.25;5360063;32;34636;-61
2022/01/20 14:36:38;;;;;;;7.27;3.20;;;;;;;5.94;53.92;100264.56;5363813;32;34493;-70
2022/01/20 14:39:41;;;;;;;9.23;3.90;;;;;;;5.79;53.78;100261.37;5357651;32;34514;-69
2022/01/20 14:42:45;;;;;;;9.20;3.37;;;;;;;5.74;54.72;100268.47;5375485;32;35769;-68
2022/01/20 14:45:48;;;;;;;14.90;4.18;;;;;;;5.73;53.88;100254.53;5364361;32;45966;-71
2022/01/20 14:48:50;;;;;;;8.32;3.72;;;;;;;6.12;52.75;100239.81;5372007;32;33944;-65
2022/01/20 14:51:53;;;;;;;9.20;3.70;;;;;;;5.78;53.00;100241.41;5366766;32;34954;-63
2022/01/20 14:54:55;;;;;;;11.50;3.83;;;;;;;5.33;54.31;100236.28;5348292;32;34505;-65
2022/01/20 14:57:57;;;;;;;9.87;3.70;;;;;;;5.35;54.47;100243.19;5334585;32;38279;-71
2022/01/20 15:01:02;;;;;;;12.83;4.20;;;;;;;6.33;51.93;100232.38;5355141;32;34998;-66
2022/01/20 15:04:08;;;;;;;7.53;3.27;;;;;;;5.90;52.21;100215.06;5356813;32;35978;-64
2022/01/20 15:07:12;;;;;;;7.90;3.17;;;;;;;5.30;53.55;100233.75;5364606;32;35786;-70
2022/01/20 15:10:15;;;;;;;7.23;3.10;;;;;;;5.54;53.45;100235.84;5354338;32;34498;-64
2022/01/20 15:13:17;;;;;;;8.85;3.67;;;;;;;5.27;53.88;100241.59;5355909;32;45228;-63
2022/01/20 15:16:20;;;;;;;7.77;2.97;;;;;;;5.50;53.38;100238.53;5368764;32;34961;-66
2022/01/20 15:19:24;;;;;;;8.10;3.17;;;;;;;5.05;54.49;100234.22;5356104;32;34399;-70
2022/01/20 15:22:26;;;;;;;10.30;3.70;;;;;;;5.34;53.50;100219.75;5355638;32;36052;-64
2022/01/20 15:25:28;;;;;;;12.47;3.70;;;;;;;5.23;53.84;100234.75;5356974;32;36863;-69
2022/01/20 15:28:31;;;;;;;8.17;3.23;;;;;;;5.19;53.73;100218.31;5361955;32;35175;-71
2022/01/20 15:31:36;;;;;;;11.97;3.40;;;;;;;5.30;53.22;100232.00;5359918;32;35464;-64
2022/01/20 15:34:39;;;;;;;9.13;3.73;;;;;;;5.22;53.12;100251.28;5359535;32;35358;-61
2022/01/20 15:37:42;;;;;;;7.47;2.70;;;;;;;5.76;52.29;100309.25;5365432;32;35128;-60
2022/01/20 15:40:48;;;;;;;9.97;3.00;;;;;;;5.11;58.82;100340.06;5363167;32;44273;-67